sensor_id;sensor_type;location;lat;lon;timestamp;temperature;humidity
68235;DHT22;55052;52.056;5.296;2022-12-18T00:01:23;-1.50;93.20
68235;DHT22;55052;52.056;5.296;2022-12-18T00:03:51;-1.60;93.20
68235;DHT22;55052;52.056;5.296;2022-12-18T00:06:21;-1.60;93.30
68235;DHT22;55052;52.056;5.296;2022-12-18T00:08:48;-1.50;93.40
68235;DHT22;55052;52.056;5.296;2022-12-18T00:11:17;-1.60;93.30
68235;DHT22;55052;52.056;5.296;2022-12-18T00:13:44;-1.50;93.40
68235;DHT22;55052;52.056;5.296;2022-12-18T00:16:14;-1.50;93.40
68235;DHT22;55052;52.056;5.296;2022-12-18T00:18:41;-1.50;93.40
68235;DHT22;55052;52.056;5.296;2022-12-18T00:21:10;-1.50;93.20
68235;DHT22;55052;52.056;5.296;2022-12-18T00:23:38;-1.60;93.30
68235;DHT22;55052;52.056;5.296;2022-12-18T00:26:24;-1.60;93.30
68235;DHT22;55052;52.056;5.296;2022-12-18T00:28:52;-1.60;93.40
68235;DHT22;55052;52.056;5.296;2022-12-18T00:31:21;-1.60;93.40
68235;DHT22;55052;52.056;5.296;2022-12-18T00:33:48;-1.60;93.30
68235;DHT22;55052;52.056;5.296;2022-12-18T00:36:25;-1.60;93.30
68235;DHT22;55052;52.056;5.296;2022-12-18T00:38:53;-1.60;93.40
68235;DHT22;55052;52.056;5.296;2022-12-18T00:41:21;-1.60;93.40
68235;DHT22;55052;52.056;5.296;2022-12-18T00:44:08;-1.70;93.30
68235;DHT22;55052;52.056;5.296;2022-12-18T00:46:35;-1.60;93.40
68235;DHT22;55052;52.056;5.296;2022-12-18T00:49:02;-1.70;93.20
68235;DHT22;55052;52.056;5.296;2022-12-18T00:51:29;-1.70;93.30
68235;DHT22;55052;52.056;5.296;2022-12-18T00:53:56;-1.70;93.40
68235;DHT22;55052;52.056;5.296;2022-12-18T00:56:23;-1.70;93.40
68235;DHT22;55052;52.056;5.296;2022-12-18T00:58:50;-1.70;93.40
68235;DHT22;55052;52.056;5.296;2022-12-18T01:01:17;-1.70;93.30
68235;DHT22;55052;52.056;5.296;2022-12-18T01:03:44;-1.70;93.30
68235;DHT22;55052;52.056;5.296;2022-12-18T01:06:15;-1.70;93.30
68235;DHT22;55052;52.056;5.296;2022-12-18T01:08:42;-1.70;93.30
68235;DHT22;55052;52.056;5.296;2022-12-18T01:11:19;-1.70;93.30
68235;DHT22;55052;52.056;5.296;2022-12-18T01:13:47;-1.70;93.30
68235;DHT22;55052;52.056;5.296;2022-12-18T01:16:15;-1.70;93.30
68235;DHT22;55052;52.056;5.296;2022-12-18T01:18:43;-1.70;93.20
68235;DHT22;55052;52.056;5.296;2022-12-18T01:21:13;-1.70;93.10
68235;DHT22;55052;52.056;5.296;2022-12-18T01:23:40;-1.80;93.20
68235;DHT22;55052;52.056;5.296;2022-12-18T01:26:10;-1.80;93.20
68235;DHT22;55052;52.056;5.296;2022-12-18T01:28:37;-1.80;93.20
68235;DHT22;55052;52.056;5.296;2022-12-18T01:33:44;-1.80;93.20
68235;DHT22;55052;52.056;5.296;2022-12-18T01:36:16;-1.80;93.20
68235;DHT22;55052;52.056;5.296;2022-12-18T01:38:43;-1.80;93.30
68235;DHT22;55052;52.056;5.296;2022-12-18T01:41:09;-1.80;93.30
68235;DHT22;55052;52.056;5.296;2022-12-18T01:43:57;-1.80;93.20
68235;DHT22;55052;52.056;5.296;2022-12-18T01:46:26;-1.80;93.20
68235;DHT22;55052;52.056;5.296;2022-12-18T01:49:01;-1.80;93.20
68235;DHT22;55052;52.056;5.296;2022-12-18T01:51:29;-1.80;93.10
68235;DHT22;55052;52.056;5.296;2022-12-18T01:53:57;-1.90;93.00
68235;DHT22;55052;52.056;5.296;2022-12-18T01:56:25;-1.90;93.10
68235;DHT22;55052;52.056;5.296;2022-12-18T01:59:00;-1.90;93.10
68235;DHT22;55052;52.056;5.296;2022-12-18T02:01:29;-1.90;93.00
68235;DHT22;55052;52.056;5.296;2022-12-18T02:03:56;-2.00;93.10
68235;DHT22;55052;52.056;5.296;2022-12-18T02:06:41;-2.00;93.00
68235;DHT22;55052;52.056;5.296;2022-12-18T02:09:20;-2.00;93.00
68235;DHT22;55052;52.056;5.296;2022-12-18T02:12:16;-2.00;92.90
68235;DHT22;55052;52.056;5.296;2022-12-18T02:15:19;-2.10;92.80
68235;DHT22;55052;52.056;5.296;2022-12-18T02:17:55;-2.10;92.90
68235;DHT22;55052;52.056;5.296;2022-12-18T02:20:32;-2.20;92.90
68235;DHT22;55052;52.056;5.296;2022-12-18T02:23:20;-2.20;92.90
68235;DHT22;55052;52.056;5.296;2022-12-18T02:29:12;-2.30;92.80
68235;DHT22;55052;52.056;5.296;2022-12-18T02:31:40;-2.30;92.80
68235;DHT22;55052;52.056;5.296;2022-12-18T02:34:07;-2.30;92.80
68235;DHT22;55052;52.056;5.296;2022-12-18T02:36:38;-2.30;92.90
68235;DHT22;55052;52.056;5.296;2022-12-18T02:39:07;-2.30;92.90
68235;DHT22;55052;52.056;5.296;2022-12-18T02:41:35;-2.40;92.80
68235;DHT22;55052;52.056;5.296;2022-12-18T02:44:08;-2.40;92.80
68235;DHT22;55052;52.056;5.296;2022-12-18T02:46:41;-2.40;92.80
68235;DHT22;55052;52.056;5.296;2022-12-18T02:52:24;-2.40;92.80
68235;DHT22;55052;52.056;5.296;2022-12-18T02:55:17;-2.50;92.80
68235;DHT22;55052;52.056;5.296;2022-12-18T02:58:11;-2.50;92.80
68235;DHT22;55052;52.056;5.296;2022-12-18T03:03:26;-2.60;92.80
68235;DHT22;55052;52.056;5.296;2022-12-18T03:06:12;-2.60;93.20
68235;DHT22;55052;52.056;5.296;2022-12-18T03:08:46;-2.60;92.90
68235;DHT22;55052;52.056;5.296;2022-12-18T03:11:14;-2.60;92.90
68235;DHT22;55052;52.056;5.296;2022-12-18T03:14:02;-2.70;92.80
68235;DHT22;55052;52.056;5.296;2022-12-18T03:16:31;-2.70;92.80
68235;DHT22;55052;52.056;5.296;2022-12-18T03:19:21;-2.70;92.80
68235;DHT22;55052;52.056;5.296;2022-12-18T03:21:54;-2.80;92.60
68235;DHT22;55052;52.056;5.296;2022-12-18T03:24:23;-2.80;93.00
68235;DHT22;55052;52.056;5.296;2022-12-18T03:27:00;-2.90;92.70
68235;DHT22;55052;52.056;5.296;2022-12-18T03:29:34;-2.80;92.70
68235;DHT22;55052;52.056;5.296;2022-12-18T03:32:07;-2.90;92.70
68235;DHT22;55052;52.056;5.296;2022-12-18T03:34:38;-2.90;92.60
68235;DHT22;55052;52.056;5.296;2022-12-18T03:37:06;-2.90;92.60
68235;DHT22;55052;52.056;5.296;2022-12-18T03:39:34;-3.00;92.40
68235;DHT22;55052;52.056;5.296;2022-12-18T03:42:14;-3.00;92.40
68235;DHT22;55052;52.056;5.296;2022-12-18T03:53:03;-3.10;92.40
68235;DHT22;55052;52.056;5.296;2022-12-18T03:55:35;-3.20;92.70
68235;DHT22;55052;52.056;5.296;2022-12-18T03:58:03;-3.20;92.30
68235;DHT22;55052;52.056;5.296;2022-12-18T04:00:31;-3.20;92.30
68235;DHT22;55052;52.056;5.296;2022-12-18T04:03:01;-3.20;92.30
68235;DHT22;55052;52.056;5.296;2022-12-18T04:05:28;-3.30;92.30
68235;DHT22;55052;52.056;5.296;2022-12-18T04:07:56;-3.30;92.30
68235;DHT22;55052;52.056;5.296;2022-12-18T04:10:23;-3.30;92.30
68235;DHT22;55052;52.056;5.296;2022-12-18T04:12:50;-3.30;92.30
68235;DHT22;55052;52.056;5.296;2022-12-18T04:15:17;-3.30;92.30
68235;DHT22;55052;52.056;5.296;2022-12-18T04:17:48;-3.30;92.30
68235;DHT22;55052;52.056;5.296;2022-12-18T04:20:16;-3.40;92.30
68235;DHT22;55052;52.056;5.296;2022-12-18T04:22:43;-3.40;92.30
68235;DHT22;55052;52.056;5.296;2022-12-18T04:25:13;-3.40;92.30
68235;DHT22;55052;52.056;5.296;2022-12-18T04:27:39;-3.40;92.30
68235;DHT22;55052;52.056;5.296;2022-12-18T04:30:06;-3.40;92.20
68235;DHT22;55052;52.056;5.296;2022-12-18T04:32:34;-3.40;92.30
68235;DHT22;55052;52.056;5.296;2022-12-18T04:35:01;-3.40;92.40
68235;DHT22;55052;52.056;5.296;2022-12-18T04:37:30;-3.40;92.40
68235;DHT22;55052;52.056;5.296;2022-12-18T04:39:57;-3.40;92.30
68235;DHT22;55052;52.056;5.296;2022-12-18T04:42:24;-3.40;92.30
68235;DHT22;55052;52.056;5.296;2022-12-18T04:44:50;-3.40;92.30
68235;DHT22;55052;52.056;5.296;2022-12-18T04:47:17;-3.40;92.30
68235;DHT22;55052;52.056;5.296;2022-12-18T04:49:44;-3.40;92.30
68235;DHT22;55052;52.056;5.296;2022-12-18T04:52:10;-3.40;92.40
68235;DHT22;55052;52.056;5.296;2022-12-18T04:54:37;-3.40;92.30
68235;DHT22;55052;52.056;5.296;2022-12-18T04:57:04;-3.40;92.30
68235;DHT22;55052;52.056;5.296;2022-12-18T04:59:30;-3.40;92.30
68235;DHT22;55052;52.056;5.296;2022-12-18T05:01:57;-3.40;92.30
68235;DHT22;55052;52.056;5.296;2022-12-18T05:04:24;-3.40;92.30
68235;DHT22;55052;52.056;5.296;2022-12-18T05:06:51;-3.40;92.30
68235;DHT22;55052;52.056;5.296;2022-12-18T05:09:17;-3.40;92.30
68235;DHT22;55052;52.056;5.296;2022-12-18T05:11:45;-3.40;92.20
68235;DHT22;55052;52.056;5.296;2022-12-18T05:14:13;-3.40;92.20
68235;DHT22;55052;52.056;5.296;2022-12-18T05:16:39;-3.40;92.30
68235;DHT22;55052;52.056;5.296;2022-12-18T05:19:06;-3.40;92.20
68235;DHT22;55052;52.056;5.296;2022-12-18T05:21:33;-3.40;92.20
68235;DHT22;55052;52.056;5.296;2022-12-18T05:24:00;-3.40;92.20
68235;DHT22;55052;52.056;5.296;2022-12-18T05:26:26;-3.40;92.20
68235;DHT22;55052;52.056;5.296;2022-12-18T05:28:56;-3.40;92.20
68235;DHT22;55052;52.056;5.296;2022-12-18T05:31:23;-3.40;92.20
68235;DHT22;55052;52.056;5.296;2022-12-18T05:33:49;-3.40;92.10
68235;DHT22;55052;52.056;5.296;2022-12-18T05:36:16;-3.50;92.20
68235;DHT22;55052;52.056;5.296;2022-12-18T05:38:43;-3.40;92.20
68235;DHT22;55052;52.056;5.296;2022-12-18T05:41:10;-3.40;92.20
68235;DHT22;55052;52.056;5.296;2022-12-18T05:43:39;-3.50;92.20
68235;DHT22;55052;52.056;5.296;2022-12-18T05:46:11;-3.50;92.10
68235;DHT22;55052;52.056;5.296;2022-12-18T05:48:39;-3.50;92.00
68235;DHT22;55052;52.056;5.296;2022-12-18T05:51:12;-3.50;92.10
68235;DHT22;55052;52.056;5.296;2022-12-18T05:53:39;-3.50;92.10
68235;DHT22;55052;52.056;5.296;2022-12-18T05:56:10;-3.50;92.00
68235;DHT22;55052;52.056;5.296;2022-12-18T05:58:37;-3.50;92.00
68235;DHT22;55052;52.056;5.296;2022-12-18T06:01:18;-3.50;92.00
68235;DHT22;55052;52.056;5.296;2022-12-18T06:03:45;-3.50;92.00
68235;DHT22;55052;52.056;5.296;2022-12-18T06:06:24;-3.60;92.00
68235;DHT22;55052;52.056;5.296;2022-12-18T06:08:52;-3.60;92.00
68235;DHT22;55052;52.056;5.296;2022-12-18T06:11:22;-3.60;92.00
68235;DHT22;55052;52.056;5.296;2022-12-18T06:13:50;-3.60;92.10
68235;DHT22;55052;52.056;5.296;2022-12-18T06:16:23;-3.60;92.00
68235;DHT22;55052;52.056;5.296;2022-12-18T06:18:50;-3.60;92.00
68235;DHT22;55052;52.056;5.296;2022-12-18T06:21:17;-3.60;92.10
68235;DHT22;55052;52.056;5.296;2022-12-18T06:23:44;-3.60;92.10
68235;DHT22;55052;52.056;5.296;2022-12-18T06:26:12;-3.60;92.10
68235;DHT22;55052;52.056;5.296;2022-12-18T06:28:39;-3.60;92.10
68235;DHT22;55052;52.056;5.296;2022-12-18T06:31:06;-3.60;92.10
68235;DHT22;55052;52.056;5.296;2022-12-18T06:33:34;-3.60;92.10
68235;DHT22;55052;52.056;5.296;2022-12-18T06:38:29;-3.60;92.00
68235;DHT22;55052;52.056;5.296;2022-12-18T06:40:56;-3.60;92.10
68235;DHT22;55052;52.056;5.296;2022-12-18T06:43:23;-3.60;92.10
68235;DHT22;55052;52.056;5.296;2022-12-18T06:45:49;-3.60;92.10
68235;DHT22;55052;52.056;5.296;2022-12-18T06:48:19;-3.60;92.10
68235;DHT22;55052;52.056;5.296;2022-12-18T06:50:46;-3.50;92.10
68235;DHT22;55052;52.056;5.296;2022-12-18T06:53:13;-3.50;92.10
68235;DHT22;55052;52.056;5.296;2022-12-18T06:55:40;-3.50;92.10
68235;DHT22;55052;52.056;5.296;2022-12-18T06:58:07;-3.50;92.10
68235;DHT22;55052;52.056;5.296;2022-12-18T07:00:36;-3.50;92.10
68235;DHT22;55052;52.056;5.296;2022-12-18T07:03:02;-3.50;92.00
68235;DHT22;55052;52.056;5.296;2022-12-18T07:05:29;-3.50;92.00
68235;DHT22;55052;52.056;5.296;2022-12-18T07:07:56;-3.50;92.00
68235;DHT22;55052;52.056;5.296;2022-12-18T07:10:23;-3.60;92.00
68235;DHT22;55052;52.056;5.296;2022-12-18T07:12:49;-3.50;92.10
68235;DHT22;55052;52.056;5.296;2022-12-18T07:15:16;-3.50;92.10
68235;DHT22;55052;52.056;5.296;2022-12-18T07:17:43;-3.50;92.10
68235;DHT22;55052;52.056;5.296;2022-12-18T07:20:10;-3.50;92.10
68235;DHT22;55052;52.056;5.296;2022-12-18T07:22:36;-3.50;92.10
68235;DHT22;55052;52.056;5.296;2022-12-18T07:25:04;-3.50;92.10
68235;DHT22;55052;52.056;5.296;2022-12-18T07:27:31;-3.50;92.10
68235;DHT22;55052;52.056;5.296;2022-12-18T07:29:58;-3.50;92.00
68235;DHT22;55052;52.056;5.296;2022-12-18T07:32:24;-3.50;92.10
68235;DHT22;55052;52.056;5.296;2022-12-18T07:34:51;-3.50;92.10
68235;DHT22;55052;52.056;5.296;2022-12-18T07:37:18;-3.50;92.10
68235;DHT22;55052;52.056;5.296;2022-12-18T07:39:44;-3.50;92.10
68235;DHT22;55052;52.056;5.296;2022-12-18T07:42:13;-3.50;92.10
68235;DHT22;55052;52.056;5.296;2022-12-18T07:44:59;-3.40;92.10
68235;DHT22;55052;52.056;5.296;2022-12-18T07:47:27;-3.40;92.20
68235;DHT22;55052;52.056;5.296;2022-12-18T07:49:55;-3.40;92.20
68235;DHT22;55052;52.056;5.296;2022-12-18T07:52:22;-3.40;92.20
68235;DHT22;55052;52.056;5.296;2022-12-18T07:54:51;-3.40;92.20
68235;DHT22;55052;52.056;5.296;2022-12-18T07:57:18;-3.40;92.60
68235;DHT22;55052;52.056;5.296;2022-12-18T08:00:05;-3.30;92.30
68235;DHT22;55052;52.056;5.296;2022-12-18T08:02:32;-3.30;92.30
68235;DHT22;55052;52.056;5.296;2022-12-18T08:05:00;-3.30;92.30
68235;DHT22;55052;52.056;5.296;2022-12-18T08:07:27;-3.20;92.30
68235;DHT22;55052;52.056;5.296;2022-12-18T08:09:53;-3.20;92.30
68235;DHT22;55052;52.056;5.296;2022-12-18T08:12:20;-3.20;92.40
68235;DHT22;55052;52.056;5.296;2022-12-18T08:14:47;-3.20;92.40
68235;DHT22;55052;52.056;5.296;2022-12-18T08:17:13;-3.10;92.40
68235;DHT22;55052;52.056;5.296;2022-12-18T08:19:40;-3.10;92.40
68235;DHT22;55052;52.056;5.296;2022-12-18T08:22:07;-3.10;92.40
68235;DHT22;55052;52.056;5.296;2022-12-18T08:24:34;-3.00;92.40
68235;DHT22;55052;52.056;5.296;2022-12-18T08:27:00;-3.00;92.40
68235;DHT22;55052;52.056;5.296;2022-12-18T08:29:47;-3.00;92.40
68235;DHT22;55052;52.056;5.296;2022-12-18T08:32:14;-2.90;92.40
68235;DHT22;55052;52.056;5.296;2022-12-18T08:34:41;-2.90;92.40
68235;DHT22;55052;52.056;5.296;2022-12-18T08:37:07;-2.80;92.40
68235;DHT22;55052;52.056;5.296;2022-12-18T08:39:34;-2.80;92.80
68235;DHT22;55052;52.056;5.296;2022-12-18T08:42:01;-2.80;92.40
68235;DHT22;55052;52.056;5.296;2022-12-18T08:44:46;-2.70;92.40
68235;DHT22;55052;52.056;5.296;2022-12-18T08:47:13;-2.70;92.30
68235;DHT22;55052;52.056;5.296;2022-12-18T08:49:40;-2.70;92.40
68235;DHT22;55052;52.056;5.296;2022-12-18T08:52:07;-2.70;92.30
68235;DHT22;55052;52.056;5.296;2022-12-18T08:54:33;-2.60;92.30
68235;DHT22;55052;52.056;5.296;2022-12-18T08:57:00;-2.60;92.30
68235;DHT22;55052;52.056;5.296;2022-12-18T08:59:27;-2.60;92.30
68235;DHT22;55052;52.056;5.296;2022-12-18T09:01:55;-2.50;92.30
68235;DHT22;55052;52.056;5.296;2022-12-18T09:04:22;-2.50;92.20
68235;DHT22;55052;52.056;5.296;2022-12-18T09:06:49;-2.50;92.20
68235;DHT22;55052;52.056;5.296;2022-12-18T09:09:15;-2.40;92.20
68235;DHT22;55052;52.056;5.296;2022-12-18T09:11:42;-2.40;92.20
68235;DHT22;55052;52.056;5.296;2022-12-18T09:14:09;-2.30;92.20
68235;DHT22;55052;52.056;5.296;2022-12-18T09:16:36;-2.30;92.20
68235;DHT22;55052;52.056;5.296;2022-12-18T09:19:04;-2.30;92.20
68235;DHT22;55052;52.056;5.296;2022-12-18T09:21:33;-2.30;92.10
68235;DHT22;55052;52.056;5.296;2022-12-18T09:24:03;-2.20;92.10
68235;DHT22;55052;52.056;5.296;2022-12-18T09:26:34;-2.20;92.10
68235;DHT22;55052;52.056;5.296;2022-12-18T09:29:02;-2.10;92.10
68235;DHT22;55052;52.056;5.296;2022-12-18T09:31:29;-2.10;92.10
68235;DHT22;55052;52.056;5.296;2022-12-18T09:33:56;-2.00;92.10
68235;DHT22;55052;52.056;5.296;2022-12-18T09:36:23;-2.00;92.10
68235;DHT22;55052;52.056;5.296;2022-12-18T09:38:50;-2.00;92.00
68235;DHT22;55052;52.056;5.296;2022-12-18T09:44:27;-1.90;92.00
68235;DHT22;55052;52.056;5.296;2022-12-18T09:49:45;-1.90;92.00
68235;DHT22;55052;52.056;5.296;2022-12-18T09:52:40;-1.80;92.00
68235;DHT22;55052;52.056;5.296;2022-12-18T09:55:32;-1.70;92.00
68235;DHT22;55052;52.056;5.296;2022-12-18T09:58:32;-1.70;92.00
68235;DHT22;55052;52.056;5.296;2022-12-18T10:00:59;-1.60;92.00
68235;DHT22;55052;52.056;5.296;2022-12-18T10:03:26;-1.60;92.00
68235;DHT22;55052;52.056;5.296;2022-12-18T10:06:18;-1.60;92.00
68235;DHT22;55052;52.056;5.296;2022-12-18T10:08:58;-1.50;92.00
68235;DHT22;55052;52.056;5.296;2022-12-18T10:11:34;-1.50;92.00
68235;DHT22;55052;52.056;5.296;2022-12-18T10:17:26;-1.40;92.00
68235;DHT22;55052;52.056;5.296;2022-12-18T10:20:01;-1.30;91.90
68235;DHT22;55052;52.056;5.296;2022-12-18T10:22:58;-1.30;91.90
68235;DHT22;55052;52.056;5.296;2022-12-18T10:28:16;-1.20;91.90
68235;DHT22;55052;52.056;5.296;2022-12-18T10:30:43;-1.10;91.90
68235;DHT22;55052;52.056;5.296;2022-12-18T10:33:18;-1.10;91.90
68235;DHT22;55052;52.056;5.296;2022-12-18T10:35:47;-1.00;91.80
68235;DHT22;55052;52.056;5.296;2022-12-18T10:43:34;-0.90;91.80
68235;DHT22;55052;52.056;5.296;2022-12-18T10:48:47;-0.80;91.80
68235;DHT22;55052;52.056;5.296;2022-12-18T10:56:22;-0.70;91.70
68235;DHT22;55052;52.056;5.296;2022-12-18T10:59:00;-0.70;91.70
68235;DHT22;55052;52.056;5.296;2022-12-18T11:01:27;-0.60;91.50
68235;DHT22;55052;52.056;5.296;2022-12-18T11:06:28;-0.50;91.50
68235;DHT22;55052;52.056;5.296;2022-12-18T11:09:18;-0.50;91.80
68235;DHT22;55052;52.056;5.296;2022-12-18T11:11:53;-0.50;91.50
68235;DHT22;55052;52.056;5.296;2022-12-18T11:14:25;-0.40;91.40
68235;DHT22;55052;52.056;5.296;2022-12-18T11:16:53;-0.40;91.50
68235;DHT22;55052;52.056;5.296;2022-12-18T11:19:41;-0.30;91.30
68235;DHT22;55052;52.056;5.296;2022-12-18T11:22:29;-0.30;91.30
68235;DHT22;55052;52.056;5.296;2022-12-18T11:33:03;-0.10;91.10
68235;DHT22;55052;52.056;5.296;2022-12-18T11:35:42;-0.10;91.20
68235;DHT22;55052;52.056;5.296;2022-12-18T11:40:45;0.00;91.00
68235;DHT22;55052;52.056;5.296;2022-12-18T11:45:51;0.10;90.90
68235;DHT22;55052;52.056;5.296;2022-12-18T11:48:24;0.10;90.90
68235;DHT22;55052;52.056;5.296;2022-12-18T11:50:55;0.10;90.90
68235;DHT22;55052;52.056;5.296;2022-12-18T11:53:24;0.20;91.00
68235;DHT22;55052;52.056;5.296;2022-12-18T11:58:54;0.20;90.80
68235;DHT22;55052;52.056;5.296;2022-12-18T12:07:20;0.30;90.50
68235;DHT22;55052;52.056;5.296;2022-12-18T12:13:09;0.40;90.70
68235;DHT22;55052;52.056;5.296;2022-12-18T12:35:02;0.60;90.40
68235;DHT22;55052;52.056;5.296;2022-12-18T12:40:27;0.70;90.20
68235;DHT22;55052;52.056;5.296;2022-12-18T12:45:55;0.70;89.80
68235;DHT22;55052;52.056;5.296;2022-12-18T12:48:40;0.70;90.20
68235;DHT22;55052;52.056;5.296;2022-12-18T12:51:19;0.80;90.10
68235;DHT22;55052;52.056;5.296;2022-12-18T12:53:47;0.80;90.20
68235;DHT22;55052;52.056;5.296;2022-12-18T12:56:21;0.80;90.00
68235;DHT22;55052;52.056;5.296;2022-12-18T12:59:15;0.80;90.20
68235;DHT22;55052;52.056;5.296;2022-12-18T13:02:04;0.90;90.00
68235;DHT22;55052;52.056;5.296;2022-12-18T13:04:53;0.90;90.10
68235;DHT22;55052;52.056;5.296;2022-12-18T13:07:39;0.90;90.00
68235;DHT22;55052;52.056;5.296;2022-12-18T13:13:12;0.90;89.60
68235;DHT22;55052;52.056;5.296;2022-12-18T13:16:07;0.90;88.60
68235;DHT22;55052;52.056;5.296;2022-12-18T13:18:35;0.90;89.00
68235;DHT22;55052;52.056;5.296;2022-12-18T13:21:12;1.00;89.50
68235;DHT22;55052;52.056;5.296;2022-12-18T13:23:42;1.00;89.70
68235;DHT22;55052;52.056;5.296;2022-12-18T13:28:54;1.00;89.30
68235;DHT22;55052;52.056;5.296;2022-12-18T13:34:17;1.00;89.60
68235;DHT22;55052;52.056;5.296;2022-12-18T13:36:55;1.00;89.20
68235;DHT22;55052;52.056;5.296;2022-12-18T13:39:23;1.10;89.30
68235;DHT22;55052;52.056;5.296;2022-12-18T13:44:34;1.10;89.40
68235;DHT22;55052;52.056;5.296;2022-12-18T13:47:31;1.10;89.30
68235;DHT22;55052;52.056;5.296;2022-12-18T13:50:00;1.10;89.30
68235;DHT22;55052;52.056;5.296;2022-12-18T13:52:36;1.10;89.00
68235;DHT22;55052;52.056;5.296;2022-12-18T13:55:10;1.10;89.00
68235;DHT22;55052;52.056;5.296;2022-12-18T13:57:41;1.10;89.00
68235;DHT22;55052;52.056;5.296;2022-12-18T14:00:26;1.10;89.00
68235;DHT22;55052;52.056;5.296;2022-12-18T14:02:55;1.10;89.10
68235;DHT22;55052;52.056;5.296;2022-12-18T14:05:28;1.10;88.90
68235;DHT22;55052;52.056;5.296;2022-12-18T14:08:22;1.10;88.40
68235;DHT22;55052;52.056;5.296;2022-12-18T14:10:49;1.10;88.60
68235;DHT22;55052;52.056;5.296;2022-12-18T14:13:28;1.10;88.30
68235;DHT22;55052;52.056;5.296;2022-12-18T14:15:56;1.20;88.60
68235;DHT22;55052;52.056;5.296;2022-12-18T14:21:02;1.20;88.40
68235;DHT22;55052;52.056;5.296;2022-12-18T14:23:40;1.20;88.60
68235;DHT22;55052;52.056;5.296;2022-12-18T14:26:26;1.20;88.50
68235;DHT22;55052;52.056;5.296;2022-12-18T14:28:56;1.20;88.40
68235;DHT22;55052;52.056;5.296;2022-12-18T14:31:29;1.20;88.30
68235;DHT22;55052;52.056;5.296;2022-12-18T14:33:56;1.20;88.40
68235;DHT22;55052;52.056;5.296;2022-12-18T14:36:27;1.20;87.90
68235;DHT22;55052;52.056;5.296;2022-12-18T14:38:58;1.20;88.20
68235;DHT22;55052;52.056;5.296;2022-12-18T14:41:26;1.20;88.00
68235;DHT22;55052;52.056;5.296;2022-12-18T14:43:54;1.20;87.80
68235;DHT22;55052;52.056;5.296;2022-12-18T14:46:44;1.20;87.90
68235;DHT22;55052;52.056;5.296;2022-12-18T14:49:23;1.20;87.80
68235;DHT22;55052;52.056;5.296;2022-12-18T14:51:53;1.20;87.40
68235;DHT22;55052;52.056;5.296;2022-12-18T14:54:22;1.20;87.10
68235;DHT22;55052;52.056;5.296;2022-12-18T14:56:56;1.20;87.40
68235;DHT22;55052;52.056;5.296;2022-12-18T14:59:25;1.20;87.20
68235;DHT22;55052;52.056;5.296;2022-12-18T15:02:03;1.20;86.80
68235;DHT22;55052;52.056;5.296;2022-12-18T15:04:39;1.20;87.30
68235;DHT22;55052;52.056;5.296;2022-12-18T15:07:14;1.20;86.70
68235;DHT22;55052;52.056;5.296;2022-12-18T15:09:44;1.20;87.00
68235;DHT22;55052;52.056;5.296;2022-12-18T15:20:56;1.20;86.90
68235;DHT22;55052;52.056;5.296;2022-12-18T15:23:27;1.20;86.80
68235;DHT22;55052;52.056;5.296;2022-12-18T15:25:56;1.20;86.40
68235;DHT22;55052;52.056;5.296;2022-12-18T15:28:30;1.20;87.50
68235;DHT22;55052;52.056;5.296;2022-12-18T15:31:06;1.20;86.50
68235;DHT22;55052;52.056;5.296;2022-12-18T15:33:45;1.20;86.60
68235;DHT22;55052;52.056;5.296;2022-12-18T15:36:26;1.20;86.50
68235;DHT22;55052;52.056;5.296;2022-12-18T15:38:55;1.20;86.10
68235;DHT22;55052;52.056;5.296;2022-12-18T15:41:35;1.20;86.50
68235;DHT22;55052;52.056;5.296;2022-12-18T15:44:15;1.20;86.40
68235;DHT22;55052;52.056;5.296;2022-12-18T15:46:47;1.20;86.50
68235;DHT22;55052;52.056;5.296;2022-12-18T15:49:14;1.20;86.30
68235;DHT22;55052;52.056;5.296;2022-12-18T15:51:40;1.20;85.90
68235;DHT22;55052;52.056;5.296;2022-12-18T15:54:11;1.20;86.00
68235;DHT22;55052;52.056;5.296;2022-12-18T15:56:40;1.20;86.40
68235;DHT22;55052;52.056;5.296;2022-12-18T15:59:25;1.20;86.30
68235;DHT22;55052;52.056;5.296;2022-12-18T16:01:52;1.20;86.10
68235;DHT22;55052;52.056;5.296;2022-12-18T16:04:21;1.20;86.20
68235;DHT22;55052;52.056;5.296;2022-12-18T16:06:49;1.20;86.00
68235;DHT22;55052;52.056;5.296;2022-12-18T16:09:36;1.20;85.90
68235;DHT22;55052;52.056;5.296;2022-12-18T16:12:03;1.20;85.80
68235;DHT22;55052;52.056;5.296;2022-12-18T16:14:31;1.20;85.70
68235;DHT22;55052;52.056;5.296;2022-12-18T16:17:04;1.20;85.70
68235;DHT22;55052;52.056;5.296;2022-12-18T16:19:31;1.20;86.00
68235;DHT22;55052;52.056;5.296;2022-12-18T16:21:58;1.20;85.90
68235;DHT22;55052;52.056;5.296;2022-12-18T16:24:27;1.20;86.10
68235;DHT22;55052;52.056;5.296;2022-12-18T16:26:56;1.20;86.30
68235;DHT22;55052;52.056;5.296;2022-12-18T16:29:24;1.20;86.30
68235;DHT22;55052;52.056;5.296;2022-12-18T16:31:57;1.20;86.00
68235;DHT22;55052;52.056;5.296;2022-12-18T16:34:27;1.20;85.70
68235;DHT22;55052;52.056;5.296;2022-12-18T16:37:06;1.20;85.70
68235;DHT22;55052;52.056;5.296;2022-12-18T16:39:34;1.20;85.80
68235;DHT22;55052;52.056;5.296;2022-12-18T16:42:03;1.20;85.80
68235;DHT22;55052;52.056;5.296;2022-12-18T16:44:32;1.20;85.80
68235;DHT22;55052;52.056;5.296;2022-12-18T16:46:59;1.20;85.50
68235;DHT22;55052;52.056;5.296;2022-12-18T16:49:29;1.20;85.40
68235;DHT22;55052;52.056;5.296;2022-12-18T16:51:56;1.20;85.70
68235;DHT22;55052;52.056;5.296;2022-12-18T16:54:23;1.20;85.80
68235;DHT22;55052;52.056;5.296;2022-12-18T16:56:50;1.20;85.70
68235;DHT22;55052;52.056;5.296;2022-12-18T16:59:18;1.20;85.70
68235;DHT22;55052;52.056;5.296;2022-12-18T17:01:45;1.20;85.50
68235;DHT22;55052;52.056;5.296;2022-12-18T17:04:13;1.20;85.40
68235;DHT22;55052;52.056;5.296;2022-12-18T17:06:42;1.20;85.40
68235;DHT22;55052;52.056;5.296;2022-12-18T17:09:14;1.20;85.50
68235;DHT22;55052;52.056;5.296;2022-12-18T17:11:42;1.20;85.70
68235;DHT22;55052;52.056;5.296;2022-12-18T17:14:14;1.20;85.30
68235;DHT22;55052;52.056;5.296;2022-12-18T17:16:42;1.20;85.60
68235;DHT22;55052;52.056;5.296;2022-12-18T17:19:09;1.20;85.40
68235;DHT22;55052;52.056;5.296;2022-12-18T17:21:43;1.20;85.30
68235;DHT22;55052;52.056;5.296;2022-12-18T17:24:10;1.20;85.30
68235;DHT22;55052;52.056;5.296;2022-12-18T17:26:37;1.30;85.40
68235;DHT22;55052;52.056;5.296;2022-12-18T17:29:04;1.20;84.90
68235;DHT22;55052;52.056;5.296;2022-12-18T17:31:33;1.20;85.30
68235;DHT22;55052;52.056;5.296;2022-12-18T17:34:02;1.20;85.30
68235;DHT22;55052;52.056;5.296;2022-12-18T17:36:29;1.20;85.30
68235;DHT22;55052;52.056;5.296;2022-12-18T17:39:00;1.30;85.40
68235;DHT22;55052;52.056;5.296;2022-12-18T17:41:28;1.30;85.30
68235;DHT22;55052;52.056;5.296;2022-12-18T17:44:02;1.30;85.40
68235;DHT22;55052;52.056;5.296;2022-12-18T17:46:31;1.30;85.40
68235;DHT22;55052;52.056;5.296;2022-12-18T17:48:59;1.30;85.10
68235;DHT22;55052;52.056;5.296;2022-12-18T17:51:27;1.30;85.40
68235;DHT22;55052;52.056;5.296;2022-12-18T17:53:54;1.30;85.50
68235;DHT22;55052;52.056;5.296;2022-12-18T17:56:22;1.30;85.70
68235;DHT22;55052;52.056;5.296;2022-12-18T17:58:49;1.30;85.80
68235;DHT22;55052;52.056;5.296;2022-12-18T18:01:19;1.30;85.30
68235;DHT22;55052;52.056;5.296;2022-12-18T18:03:47;1.30;85.60